Terminal Aerodrome Forecast
Issued by NWS

Home | Current Version | Previous Version | Text Only | Print | Product List | Glossary On
Versions: 1 2 3 4 5 6 7 8 9 10 11 12 13 14 15 16 17 18 19 20 21
000
FTUS44 KSJT 011300 AAA
TAFSOA
TAF AMD
KSOA 011300Z 0113/0212 02005KT 2SM -DZ BR OVC002
      TEMPO 0113/0115 3SM -DZ BR OVC001
     FM011600 04006KT 4SM BR OVC004
     FM011800 05007KT P6SM OVC009
     FM020200 04008KT 4SM BR OVC006
     FM020500 04008KT 3SM -DZ BR OVC003=

USA.gov is the U.S. government's official web portal to all federal, state and local government web resources and services.